| Date | Time | Temp. (oF) | Dew Point (oF) | Rel. Hum. (%) | Press. (in.) | Wind Dir. | Wind Speed (mph) | Hourly Rainfall (in.) |
|
|---|---|---|---|---|---|---|---|---|---|
| 1 | 06/20 | 00:00 | 69 | 54 | 60 | 30.16 | WSW | 0 | 0.00 |
| 2 | 06/19 | 23:00 | 71 | 53 | 54 | 30.17 | SSW | 3 | 0.00 |
| 3 | 06/19 | 22:00 | 74 | 52 | 48 | 30.16 | S | 0 | 0.00 |
| 4 | 06/19 | 21:00 | 78 | 54 | 44 | 30.15 | SSW | 0 | 0.00 |
| 5 | 06/19 | 20:00 | 81 | 54 | 40 | 30.14 | SSE | 0 | 0.00 |
| 6 | 06/19 | 19:00 | 85 | 53 | 35 | 30.13 | S | 0 | 0.00 |
| 7 | 06/19 | 18:00 | 86 | 51 | 31 | 30.13 | S | 8 | 0.00 |
| 8 | 06/19 | 17:00 | 87 | 53 | 32 | 30.14 | S | 0 | 0.00 |
| 9 | 06/19 | 16:00 | 88 | 52 | 30 | 30.16 | WSW | 0 | 0.00 |
| 10 | 06/19 | 15:00 | 88 | 52 | 30 | 30.19 | N | 6 | 0.00 |
| 11 | 06/19 | 14:00 | 86 | 51 | 31 | 30.20 | S | 10 | 0.00 |
| 12 | 06/19 | 13:00 | 84 | 53 | 36 | 30.22 | N | 1 | 0.00 |
| 13 | 06/19 | 12:00 | 83 | 53 | 37 | 30.25 | SSW | 1 | 0.00 |
| 14 | 06/19 | 11:00 | 81 | 56 | 44 | 30.26 | WSW | 10 | 0.00 |
| 15 | 06/19 | 10:00 | 77 | 57 | 51 | 30.26 | WSW | 3 | 0.00 |
| 16 | 06/19 | 09:00 | 71 | 59 | 68 | 30.27 | WSW | 0 | 0.00 |
| 17 | 06/19 | 08:00 | 63 | 57 | 83 | 30.26 | SSE | 0 | 0.00 |
| 18 | 06/19 | 07:00 | 60 | 55 | 86 | 30.26 | SSE | 0 | 0.00 |
| 19 | 06/19 | 06:00 | 59 | 53 | 82 | 30.25 | E | 0 | 0.00 |
| 20 | 06/19 | 05:00 | 59 | 52 | 79 | 30.24 | ESE | 0 | 0.00 |
| 21 | 06/19 | 04:00 | 61 | 52 | 73 | 30.23 | ESE | 0 | 0.00 |
| 22 | 06/19 | 03:00 | 63 | 51 | 67 | 30.23 | SSW | 0 | 0.00 |
| 23 | 06/19 | 02:00 | 65 | 51 | 61 | 30.22 | SSW | 0 | 0.00 |
| 24 | 06/19 | 01:00 | 68 | 51 | 56 | 30.22 | SSW | 0 | 0.00 |